sensor_id;sensor_type;location;lat;lon;timestamp;P1;durP1;ratioP1;P2;durP2;ratioP2
61840;SDS011;47773;53.174;6.614;2023-05-18T00:01:32;11.77;;;3.25;;
61840;SDS011;47773;53.174;6.614;2023-05-18T00:03:58;15.27;;;1.92;;
61840;SDS011;47773;53.174;6.614;2023-05-18T00:06:23;12.80;;;2.28;;
61840;SDS011;47773;53.174;6.614;2023-05-18T00:08:49;9.98;;;2.47;;
61840;SDS011;47773;53.174;6.614;2023-05-18T00:11:15;14.27;;;2.50;;
61840;SDS011;47773;53.174;6.614;2023-05-18T00:13:42;13.30;;;2.72;;
61840;SDS011;47773;53.174;6.614;2023-05-18T00:16:08;12.02;;;2.13;;
61840;SDS011;47773;53.174;6.614;2023-05-18T00:18:36;10.13;;;3.22;;
61840;SDS011;47773;53.174;6.614;2023-05-18T00:21:01;7.32;;;1.95;;
61840;SDS011;47773;53.174;6.614;2023-05-18T00:23:27;12.55;;;2.58;;
61840;SDS011;47773;53.174;6.614;2023-05-18T00:25:57;14.25;;;3.40;;
61840;SDS011;47773;53.174;6.614;2023-05-18T00:28:23;9.93;;;2.47;;
61840;SDS011;47773;53.174;6.614;2023-05-18T00:30:50;10.02;;;2.58;;
61840;SDS011;47773;53.174;6.614;2023-05-18T00:33:16;9.02;;;2.28;;
61840;SDS011;47773;53.174;6.614;2023-05-18T00:35:42;17.20;;;3.00;;
61840;SDS011;47773;53.174;6.614;2023-05-18T00:38:08;11.20;;;2.70;;
61840;SDS011;47773;53.174;6.614;2023-05-18T00:40:36;14.77;;;2.53;;
61840;SDS011;47773;53.174;6.614;2023-05-18T00:43:03;9.35;;;2.17;;
61840;SDS011;47773;53.174;6.614;2023-05-18T00:45:28;13.80;;;2.17;;
61840;SDS011;47773;53.174;6.614;2023-05-18T00:47:54;9.32;;;2.25;;
61840;SDS011;47773;53.174;6.614;2023-05-18T00:50:20;16.02;;;2.60;;
61840;SDS011;47773;53.174;6.614;2023-05-18T00:52:46;11.98;;;2.65;;
61840;SDS011;47773;53.174;6.614;2023-05-18T00:55:12;7.40;;;2.30;;
61840;SDS011;47773;53.174;6.614;2023-05-18T00:57:41;12.30;;;2.75;;
61840;SDS011;47773;53.174;6.614;2023-05-18T01:00:08;10.43;;;2.22;;
61840;SDS011;47773;53.174;6.614;2023-05-18T01:02:38;13.13;;;2.30;;
61840;SDS011;47773;53.174;6.614;2023-05-18T01:05:07;10.50;;;2.60;;
61840;SDS011;47773;53.174;6.614;2023-05-18T01:07:36;11.70;;;2.65;;
61840;SDS011;47773;53.174;6.614;2023-05-18T01:10:02;14.10;;;2.50;;
61840;SDS011;47773;53.174;6.614;2023-05-18T01:12:30;13.52;;;2.20;;
61840;SDS011;47773;53.174;6.614;2023-05-18T01:28:20;10.40;;;1.75;;
61840;SDS011;47773;53.174;6.614;2023-05-18T01:30:52;12.93;;;1.83;;
61840;SDS011;47773;53.174;6.614;2023-05-18T01:33:19;11.55;;;2.83;;
61840;SDS011;47773;53.174;6.614;2023-05-18T01:35:45;10.55;;;2.15;;
61840;SDS011;47773;53.174;6.614;2023-05-18T01:38:19;9.15;;;2.05;;
61840;SDS011;47773;53.174;6.614;2023-05-18T01:41:14;10.98;;;1.98;;
61840;SDS011;47773;53.174;6.614;2023-05-18T01:49:31;11.73;;;2.35;;
61840;SDS011;47773;53.174;6.614;2023-05-18T01:52:03;11.77;;;2.55;;
61840;SDS011;47773;53.174;6.614;2023-05-18T01:54:33;13.20;;;2.80;;
61840;SDS011;47773;53.174;6.614;2023-05-18T01:57:02;11.60;;;2.95;;
61840;SDS011;47773;53.174;6.614;2023-05-18T01:59:30;15.98;;;2.17;;
61840;SDS011;47773;53.174;6.614;2023-05-18T02:01:56;6.38;;;2.25;;
61840;SDS011;47773;53.174;6.614;2023-05-18T02:04:24;14.77;;;2.70;;
61840;SDS011;47773;53.174;6.614;2023-05-18T02:06:50;13.57;;;2.45;;
61840;SDS011;47773;53.174;6.614;2023-05-18T02:09:18;14.13;;;2.63;;
61840;SDS011;47773;53.174;6.614;2023-05-18T02:11:45;12.10;;;2.60;;
61840;SDS011;47773;53.174;6.614;2023-05-18T02:14:10;8.32;;;2.53;;
61840;SDS011;47773;53.174;6.614;2023-05-18T02:16:36;12.55;;;3.10;;
61840;SDS011;47773;53.174;6.614;2023-05-18T02:19:02;10.38;;;2.65;;
61840;SDS011;47773;53.174;6.614;2023-05-18T02:21:28;7.93;;;2.20;;
61840;SDS011;47773;53.174;6.614;2023-05-18T02:23:54;12.30;;;3.35;;
61840;SDS011;47773;53.174;6.614;2023-05-18T02:26:20;7.75;;;2.20;;
61840;SDS011;47773;53.174;6.614;2023-05-18T02:28:46;11.32;;;2.78;;
61840;SDS011;47773;53.174;6.614;2023-05-18T02:31:12;13.82;;;2.67;;
61840;SDS011;47773;53.174;6.614;2023-05-18T02:33:38;10.18;;;2.50;;
61840;SDS011;47773;53.174;6.614;2023-05-18T02:36:11;14.88;;;3.10;;
61840;SDS011;47773;53.174;6.614;2023-05-18T02:38:41;11.25;;;2.40;;
61840;SDS011;47773;53.174;6.614;2023-05-18T02:41:08;8.35;;;2.50;;
61840;SDS011;47773;53.174;6.614;2023-05-18T02:43:34;18.70;;;3.00;;
61840;SDS011;47773;53.174;6.614;2023-05-18T02:46:00;9.48;;;2.30;;
61840;SDS011;47773;53.174;6.614;2023-05-18T02:48:27;11.27;;;2.70;;
61840;SDS011;47773;53.174;6.614;2023-05-18T02:50:53;10.50;;;2.78;;
61840;SDS011;47773;53.174;6.614;2023-05-18T02:53:19;8.07;;;2.45;;
61840;SDS011;47773;53.174;6.614;2023-05-18T02:55:45;10.13;;;2.50;;
61840;SDS011;47773;53.174;6.614;2023-05-18T02:58:12;12.98;;;2.63;;
61840;SDS011;47773;53.174;6.614;2023-05-18T03:00:39;15.45;;;2.83;;
61840;SDS011;47773;53.174;6.614;2023-05-18T03:03:05;23.48;;;3.78;;
61840;SDS011;47773;53.174;6.614;2023-05-18T03:05:35;15.18;;;3.10;;
61840;SDS011;47773;53.174;6.614;2023-05-18T03:08:01;7.15;;;2.50;;
61840;SDS011;47773;53.174;6.614;2023-05-18T03:10:26;16.05;;;3.22;;
61840;SDS011;47773;53.174;6.614;2023-05-18T03:12:52;12.55;;;3.10;;
61840;SDS011;47773;53.174;6.614;2023-05-18T03:15:18;10.55;;;2.72;;
61840;SDS011;47773;53.174;6.614;2023-05-18T03:17:44;9.07;;;2.85;;
61840;SDS011;47773;53.174;6.614;2023-05-18T03:20:10;14.63;;;2.60;;
61840;SDS011;47773;53.174;6.614;2023-05-18T03:22:38;14.60;;;3.00;;
61840;SDS011;47773;53.174;6.614;2023-05-18T03:25:04;12.90;;;3.13;;
61840;SDS011;47773;53.174;6.614;2023-05-18T03:27:30;14.63;;;3.22;;
61840;SDS011;47773;53.174;6.614;2023-05-18T03:29:56;14.05;;;3.45;;
61840;SDS011;47773;53.174;6.614;2023-05-18T03:32:22;12.57;;;3.17;;
61840;SDS011;47773;53.174;6.614;2023-05-18T03:34:49;9.65;;;2.83;;
61840;SDS011;47773;53.174;6.614;2023-05-18T03:37:15;6.65;;;2.50;;
61840;SDS011;47773;53.174;6.614;2023-05-18T03:39:41;15.13;;;3.30;;
61840;SDS011;47773;53.174;6.614;2023-05-18T03:42:07;12.75;;;3.03;;
61840;SDS011;47773;53.174;6.614;2023-05-18T03:44:33;13.15;;;2.83;;
61840;SDS011;47773;53.174;6.614;2023-05-18T03:46:59;11.77;;;2.88;;
61840;SDS011;47773;53.174;6.614;2023-05-18T03:49:25;15.25;;;4.35;;
61840;SDS011;47773;53.174;6.614;2023-05-18T03:51:50;14.65;;;3.03;;
61840;SDS011;47773;53.174;6.614;2023-05-18T03:54:18;9.30;;;2.75;;
61840;SDS011;47773;53.174;6.614;2023-05-18T03:56:45;15.05;;;2.88;;
61840;SDS011;47773;53.174;6.614;2023-05-18T03:59:11;12.57;;;3.75;;
61840;SDS011;47773;53.174;6.614;2023-05-18T04:01:37;13.68;;;3.33;;
61840;SDS011;47773;53.174;6.614;2023-05-18T04:04:06;16.48;;;3.10;;
61840;SDS011;47773;53.174;6.614;2023-05-18T04:06:44;17.90;;;3.17;;
61840;SDS011;47773;53.174;6.614;2023-05-18T04:09:11;14.65;;;2.97;;
61840;SDS011;47773;53.174;6.614;2023-05-18T04:11:39;14.88;;;2.97;;
61840;SDS011;47773;53.174;6.614;2023-05-18T04:14:06;11.00;;;2.90;;
61840;SDS011;47773;53.174;6.614;2023-05-18T04:16:35;9.00;;;2.83;;
61840;SDS011;47773;53.174;6.614;2023-05-18T04:19:00;13.68;;;3.03;;
61840;SDS011;47773;53.174;6.614;2023-05-18T04:21:28;9.02;;;2.88;;
61840;SDS011;47773;53.174;6.614;2023-05-18T04:23:59;11.77;;;2.67;;
61840;SDS011;47773;53.174;6.614;2023-05-18T04:26:29;13.70;;;3.08;;
61840;SDS011;47773;53.174;6.614;2023-05-18T04:28:55;12.77;;;2.85;;
61840;SDS011;47773;53.174;6.614;2023-05-18T04:31:25;17.60;;;3.28;;
61840;SDS011;47773;53.174;6.614;2023-05-18T04:33:51;10.95;;;2.92;;
61840;SDS011;47773;53.174;6.614;2023-05-18T04:36:17;13.65;;;3.13;;
61840;SDS011;47773;53.174;6.614;2023-05-18T04:38:44;13.80;;;3.38;;
61840;SDS011;47773;53.174;6.614;2023-05-18T04:41:10;12.45;;;2.97;;
61840;SDS011;47773;53.174;6.614;2023-05-18T04:43:36;15.98;;;3.20;;
61840;SDS011;47773;53.174;6.614;2023-05-18T04:46:02;16.35;;;3.33;;
61840;SDS011;47773;53.174;6.614;2023-05-18T04:48:28;9.75;;;2.67;;
61840;SDS011;47773;53.174;6.614;2023-05-18T04:50:54;9.95;;;3.05;;
61840;SDS011;47773;53.174;6.614;2023-05-18T04:53:20;16.27;;;2.67;;
61840;SDS011;47773;53.174;6.614;2023-05-18T04:55:47;22.15;;;3.03;;
61840;SDS011;47773;53.174;6.614;2023-05-18T04:58:14;15.77;;;2.58;;
61840;SDS011;47773;53.174;6.614;2023-05-18T05:00:40;13.70;;;3.10;;
61840;SDS011;47773;53.174;6.614;2023-05-18T05:03:07;15.82;;;2.92;;
61840;SDS011;47773;53.174;6.614;2023-05-18T05:05:33;13.10;;;2.58;;
61840;SDS011;47773;53.174;6.614;2023-05-18T05:07:58;11.82;;;2.55;;
61840;SDS011;47773;53.174;6.614;2023-05-18T05:10:24;17.73;;;3.30;;
61840;SDS011;47773;53.174;6.614;2023-05-18T05:12:52;15.25;;;3.03;;
61840;SDS011;47773;53.174;6.614;2023-05-18T05:15:18;11.18;;;3.35;;
61840;SDS011;47773;53.174;6.614;2023-05-18T05:17:47;13.55;;;2.60;;
61840;SDS011;47773;53.174;6.614;2023-05-18T05:20:13;13.15;;;3.08;;
61840;SDS011;47773;53.174;6.614;2023-05-18T05:22:39;13.35;;;2.50;;
61840;SDS011;47773;53.174;6.614;2023-05-18T05:25:04;19.55;;;3.30;;
61840;SDS011;47773;53.174;6.614;2023-05-18T05:27:30;13.07;;;3.30;;
61840;SDS011;47773;53.174;6.614;2023-05-18T05:29:56;10.52;;;2.70;;
61840;SDS011;47773;53.174;6.614;2023-05-18T05:32:22;12.35;;;3.10;;
61840;SDS011;47773;53.174;6.614;2023-05-18T05:34:47;16.73;;;3.22;;
61840;SDS011;47773;53.174;6.614;2023-05-18T05:37:14;19.08;;;3.53;;
61840;SDS011;47773;53.174;6.614;2023-05-18T05:39:41;17.02;;;4.20;;
61840;SDS011;47773;53.174;6.614;2023-05-18T05:42:07;13.90;;;2.83;;
61840;SDS011;47773;53.174;6.614;2023-05-18T05:44:32;12.63;;;3.10;;
61840;SDS011;47773;53.174;6.614;2023-05-18T05:46:58;14.32;;;3.10;;
61840;SDS011;47773;53.174;6.614;2023-05-18T05:49:24;10.52;;;2.90;;
61840;SDS011;47773;53.174;6.614;2023-05-18T05:51:50;11.90;;;3.13;;
61840;SDS011;47773;53.174;6.614;2023-05-18T05:54:16;21.30;;;3.92;;
61840;SDS011;47773;53.174;6.614;2023-05-18T05:56:42;13.52;;;3.13;;
61840;SDS011;47773;53.174;6.614;2023-05-18T05:59:07;11.77;;;2.90;;
61840;SDS011;47773;53.174;6.614;2023-05-18T06:01:33;14.93;;;3.00;;
61840;SDS011;47773;53.174;6.614;2023-05-18T06:03:59;11.80;;;2.53;;
61840;SDS011;47773;53.174;6.614;2023-05-18T06:06:26;14.88;;;2.90;;
61840;SDS011;47773;53.174;6.614;2023-05-18T06:08:52;19.35;;;3.00;;
61840;SDS011;47773;53.174;6.614;2023-05-18T06:11:18;15.98;;;3.00;;
61840;SDS011;47773;53.174;6.614;2023-05-18T06:13:43;19.05;;;3.92;;
61840;SDS011;47773;53.174;6.614;2023-05-18T06:16:09;14.52;;;3.17;;
61840;SDS011;47773;53.174;6.614;2023-05-18T06:18:34;13.88;;;3.13;;
61840;SDS011;47773;53.174;6.614;2023-05-18T06:21:00;12.05;;;2.55;;
61840;SDS011;47773;53.174;6.614;2023-05-18T06:23:26;13.13;;;3.03;;
61840;SDS011;47773;53.174;6.614;2023-05-18T06:25:51;13.50;;;3.38;;
61840;SDS011;47773;53.174;6.614;2023-05-18T06:28:17;12.75;;;3.40;;
61840;SDS011;47773;53.174;6.614;2023-05-18T06:30:43;18.15;;;2.95;;
61840;SDS011;47773;53.174;6.614;2023-05-18T06:33:09;13.23;;;2.97;;
61840;SDS011;47773;53.174;6.614;2023-05-18T06:35:35;11.75;;;3.00;;
61840;SDS011;47773;53.174;6.614;2023-05-18T06:38:00;13.88;;;3.50;;
61840;SDS011;47773;53.174;6.614;2023-05-18T06:40:26;16.98;;;3.00;;
61840;SDS011;47773;53.174;6.614;2023-05-18T06:42:52;19.67;;;3.05;;
61840;SDS011;47773;53.174;6.614;2023-05-18T06:45:17;21.35;;;3.30;;
61840;SDS011;47773;53.174;6.614;2023-05-18T06:47:44;15.95;;;2.95;;
61840;SDS011;47773;53.174;6.614;2023-05-18T06:50:10;17.25;;;2.90;;
61840;SDS011;47773;53.174;6.614;2023-05-18T06:52:36;17.88;;;3.15;;
61840;SDS011;47773;53.174;6.614;2023-05-18T06:55:02;19.80;;;4.20;;
61840;SDS011;47773;53.174;6.614;2023-05-18T06:57:28;14.25;;;4.00;;
61840;SDS011;47773;53.174;6.614;2023-05-18T06:59:54;25.85;;;4.65;;
61840;SDS011;47773;53.174;6.614;2023-05-18T07:02:20;12.02;;;3.17;;
61840;SDS011;47773;53.174;6.614;2023-05-18T07:04:46;17.65;;;3.20;;
61840;SDS011;47773;53.174;6.614;2023-05-18T07:07:13;16.20;;;3.50;;
61840;SDS011;47773;53.174;6.614;2023-05-18T07:09:39;17.27;;;3.65;;
61840;SDS011;47773;53.174;6.614;2023-05-18T07:12:09;17.92;;;3.53;;
61840;SDS011;47773;53.174;6.614;2023-05-18T07:14:36;14.20;;;3.08;;
61840;SDS011;47773;53.174;6.614;2023-05-18T07:17:02;14.70;;;3.13;;
61840;SDS011;47773;53.174;6.614;2023-05-18T07:19:28;19.02;;;3.10;;
61840;SDS011;47773;53.174;6.614;2023-05-18T07:21:54;9.23;;;3.03;;
61840;SDS011;47773;53.174;6.614;2023-05-18T07:24:21;10.82;;;2.75;;
61840;SDS011;47773;53.174;6.614;2023-05-18T07:26:46;16.95;;;2.80;;
61840;SDS011;47773;53.174;6.614;2023-05-18T07:29:12;14.10;;;2.83;;
61840;SDS011;47773;53.174;6.614;2023-05-18T07:31:38;10.30;;;3.05;;
61840;SDS011;47773;53.174;6.614;2023-05-18T07:34:05;14.75;;;2.80;;
61840;SDS011;47773;53.174;6.614;2023-05-18T07:36:31;17.25;;;3.65;;
61840;SDS011;47773;53.174;6.614;2023-05-18T07:38:57;15.98;;;4.13;;
61840;SDS011;47773;53.174;6.614;2023-05-18T07:41:23;16.15;;;3.08;;
61840;SDS011;47773;53.174;6.614;2023-05-18T07:43:49;9.75;;;2.67;;
61840;SDS011;47773;53.174;6.614;2023-05-18T07:46:15;16.00;;;2.92;;
61840;SDS011;47773;53.174;6.614;2023-05-18T07:48:41;7.97;;;2.72;;
61840;SDS011;47773;53.174;6.614;2023-05-18T07:51:06;15.55;;;3.20;;
61840;SDS011;47773;53.174;6.614;2023-05-18T07:53:32;13.27;;;3.10;;
61840;SDS011;47773;53.174;6.614;2023-05-18T07:55:58;12.45;;;2.83;;
61840;SDS011;47773;53.174;6.614;2023-05-18T07:58:25;15.85;;;2.80;;
61840;SDS011;47773;53.174;6.614;2023-05-18T08:00:50;12.25;;;3.08;;
61840;SDS011;47773;53.174;6.614;2023-05-18T08:03:17;10.23;;;2.83;;
61840;SDS011;47773;53.174;6.614;2023-05-18T08:05:42;20.05;;;2.92;;
61840;SDS011;47773;53.174;6.614;2023-05-18T08:08:08;13.35;;;2.58;;
61840;SDS011;47773;53.174;6.614;2023-05-18T08:10:36;16.63;;;2.80;;
61840;SDS011;47773;53.174;6.614;2023-05-18T08:13:02;15.13;;;3.10;;
61840;SDS011;47773;53.174;6.614;2023-05-18T08:15:27;14.50;;;3.22;;
61840;SDS011;47773;53.174;6.614;2023-05-18T08:17:53;13.10;;;3.35;;
61840;SDS011;47773;53.174;6.614;2023-05-18T08:20:19;19.15;;;2.95;;
61840;SDS011;47773;53.174;6.614;2023-05-18T08:22:44;17.20;;;3.22;;
61840;SDS011;47773;53.174;6.614;2023-05-18T08:25:10;19.40;;;3.15;;
61840;SDS011;47773;53.174;6.614;2023-05-18T08:27:36;21.70;;;3.20;;
61840;SDS011;47773;53.174;6.614;2023-05-18T08:30:01;13.15;;;3.05;;
61840;SDS011;47773;53.174;6.614;2023-05-18T08:32:27;11.35;;;2.83;;
61840;SDS011;47773;53.174;6.614;2023-05-18T08:34:53;14.07;;;3.08;;
61840;SDS011;47773;53.174;6.614;2023-05-18T08:37:19;17.10;;;3.30;;
61840;SDS011;47773;53.174;6.614;2023-05-18T08:39:46;10.73;;;2.90;;
61840;SDS011;47773;53.174;6.614;2023-05-18T08:42:18;10.23;;;2.85;;
61840;SDS011;47773;53.174;6.614;2023-05-18T08:45:00;13.57;;;3.17;;
61840;SDS011;47773;53.174;6.614;2023-05-18T08:47:35;12.18;;;3.03;;
61840;SDS011;47773;53.174;6.614;2023-05-18T08:50:01;16.00;;;3.35;;
61840;SDS011;47773;53.174;6.614;2023-05-18T08:52:29;16.60;;;3.50;;
61840;SDS011;47773;53.174;6.614;2023-05-18T08:54:59;23.08;;;3.60;;
61840;SDS011;47773;53.174;6.614;2023-05-18T08:57:30;13.13;;;3.33;;
61840;SDS011;47773;53.174;6.614;2023-05-18T08:59:59;12.40;;;3.00;;
61840;SDS011;47773;53.174;6.614;2023-05-18T09:02:26;11.70;;;3.33;;
61840;SDS011;47773;53.174;6.614;2023-05-18T09:04:52;12.32;;;3.50;;
61840;SDS011;47773;53.174;6.614;2023-05-18T09:07:20;14.75;;;3.30;;
61840;SDS011;47773;53.174;6.614;2023-05-18T09:09:47;15.52;;;3.33;;
61840;SDS011;47773;53.174;6.614;2023-05-18T09:12:16;17.40;;;3.80;;
61840;SDS011;47773;53.174;6.614;2023-05-18T09:14:44;16.10;;;3.35;;
61840;SDS011;47773;53.174;6.614;2023-05-18T09:17:10;18.10;;;3.45;;
61840;SDS011;47773;53.174;6.614;2023-05-18T09:19:36;17.77;;;3.40;;
61840;SDS011;47773;53.174;6.614;2023-05-18T09:22:01;16.30;;;3.47;;
61840;SDS011;47773;53.174;6.614;2023-05-18T09:24:28;19.52;;;3.70;;
61840;SDS011;47773;53.174;6.614;2023-05-18T09:26:53;13.95;;;3.53;;
61840;SDS011;47773;53.174;6.614;2023-05-18T09:29:20;14.77;;;3.50;;
61840;SDS011;47773;53.174;6.614;2023-05-18T09:31:48;17.52;;;3.83;;
61840;SDS011;47773;53.174;6.614;2023-05-18T09:34:14;28.80;;;3.65;;
61840;SDS011;47773;53.174;6.614;2023-05-18T09:36:40;17.98;;;3.90;;
61840;SDS011;47773;53.174;6.614;2023-05-18T09:39:10;11.00;;;3.47;;
61840;SDS011;47773;53.174;6.614;2023-05-18T09:41:37;12.93;;;3.05;;
61840;SDS011;47773;53.174;6.614;2023-05-18T09:44:03;18.33;;;4.40;;
61840;SDS011;47773;53.174;6.614;2023-05-18T09:46:36;15.85;;;3.00;;
61840;SDS011;47773;53.174;6.614;2023-05-18T09:49:03;20.95;;;3.83;;
61840;SDS011;47773;53.174;6.614;2023-05-18T09:51:30;16.20;;;3.35;;
61840;SDS011;47773;53.174;6.614;2023-05-18T09:53:58;10.40;;;3.13;;
61840;SDS011;47773;53.174;6.614;2023-05-18T09:56:25;10.02;;;3.38;;
61840;SDS011;47773;53.174;6.614;2023-05-18T09:58:51;16.33;;;3.03;;
61840;SDS011;47773;53.174;6.614;2023-05-18T10:01:17;17.08;;;3.58;;
61840;SDS011;47773;53.174;6.614;2023-05-18T10:03:43;19.27;;;3.58;;
61840;SDS011;47773;53.174;6.614;2023-05-18T10:06:12;17.00;;;3.30;;
61840;SDS011;47773;53.174;6.614;2023-05-18T10:08:38;15.77;;;3.65;;
61840;SDS011;47773;53.174;6.614;2023-05-18T10:11:05;23.60;;;3.92;;
61840;SDS011;47773;53.174;6.614;2023-05-18T10:13:31;14.00;;;3.72;;
61840;SDS011;47773;53.174;6.614;2023-05-18T10:15:59;12.68;;;4.20;;
61840;SDS011;47773;53.174;6.614;2023-05-18T10:18:36;18.40;;;3.90;;
61840;SDS011;47773;53.174;6.614;2023-05-18T10:23:35;15.73;;;4.22;;
61840;SDS011;47773;53.174;6.614;2023-05-18T10:26:04;13.80;;;3.60;;
61840;SDS011;47773;53.174;6.614;2023-05-18T10:28:40;14.45;;;3.38;;
61840;SDS011;47773;53.174;6.614;2023-05-18T10:31:08;19.20;;;3.80;;
61840;SDS011;47773;53.174;6.614;2023-05-18T10:33:35;15.73;;;3.50;;
61840;SDS011;47773;53.174;6.614;2023-05-18T10:36:02;16.65;;;3.95;;
61840;SDS011;47773;53.174;6.614;2023-05-18T10:38:29;15.55;;;3.78;;
61840;SDS011;47773;53.174;6.614;2023-05-18T10:40:56;13.57;;;3.97;;
61840;SDS011;47773;53.174;6.614;2023-05-18T10:43:24;12.90;;;3.42;;
61840;SDS011;47773;53.174;6.614;2023-05-18T10:45:58;14.63;;;4.15;;
61840;SDS011;47773;53.174;6.614;2023-05-18T10:48:25;13.10;;;4.15;;
61840;SDS011;47773;53.174;6.614;2023-05-18T10:50:52;17.02;;;3.67;;
61840;SDS011;47773;53.174;6.614;2023-05-18T10:53:20;13.25;;;4.05;;
61840;SDS011;47773;53.174;6.614;2023-05-18T10:55:53;19.67;;;4.05;;
61840;SDS011;47773;53.174;6.614;2023-05-18T10:58:21;18.13;;;3.88;;
61840;SDS011;47773;53.174;6.614;2023-05-18T11:01:00;17.83;;;3.55;;
61840;SDS011;47773;53.174;6.614;2023-05-18T11:03:29;16.23;;;4.38;;
61840;SDS011;47773;53.174;6.614;2023-05-18T11:06:10;18.15;;;3.78;;
61840;SDS011;47773;53.174;6.614;2023-05-18T11:08:47;14.00;;;4.03;;
61840;SDS011;47773;53.174;6.614;2023-05-18T11:11:14;14.57;;;3.70;;
61840;SDS011;47773;53.174;6.614;2023-05-18T11:13:44;14.48;;;3.47;;
61840;SDS011;47773;53.174;6.614;2023-05-18T11:16:13;18.58;;;3.90;;
61840;SDS011;47773;53.174;6.614;2023-05-18T11:18:52;16.55;;;4.30;;
61840;SDS011;47773;53.174;6.614;2023-05-18T11:21:29;14.95;;;4.00;;
61840;SDS011;47773;53.174;6.614;2023-05-18T11:24:17;10.80;;;3.95;;
61840;SDS011;47773;53.174;6.614;2023-05-18T11:26:51;15.60;;;3.70;;
61840;SDS011;47773;53.174;6.614;2023-05-18T11:31:59;17.70;;;4.65;;
61840;SDS011;47773;53.174;6.614;2023-05-18T11:34:44;15.38;;;4.00;;
61840;SDS011;47773;53.174;6.614;2023-05-18T11:37:12;19.42;;;4.72;;
61840;SDS011;47773;53.174;6.614;2023-05-18T11:39:39;16.60;;;4.20;;
61840;SDS011;47773;53.174;6.614;2023-05-18T11:42:06;13.75;;;3.78;;
61840;SDS011;47773;53.174;6.614;2023-05-18T11:44:33;13.75;;;4.00;;
61840;SDS011;47773;53.174;6.614;2023-05-18T11:47:03;15.82;;;4.70;;
61840;SDS011;47773;53.174;6.614;2023-05-18T11:54:53;12.57;;;4.20;;
61840;SDS011;47773;53.174;6.614;2023-05-18T11:59:58;13.50;;;4.40;;
61840;SDS011;47773;53.174;6.614;2023-05-18T12:02:26;16.70;;;3.75;;
61840;SDS011;47773;53.174;6.614;2023-05-18T12:04:55;15.27;;;3.53;;
61840;SDS011;47773;53.174;6.614;2023-05-18T12:07:24;11.23;;;3.58;;
61840;SDS011;47773;53.174;6.614;2023-05-18T12:09:52;16.55;;;4.30;;
61840;SDS011;47773;53.174;6.614;2023-05-18T12:12:40;23.33;;;4.45;;
61840;SDS011;47773;53.174;6.614;2023-05-18T12:15:07;24.10;;;4.45;;
61840;SDS011;47773;53.174;6.614;2023-05-18T12:17:40;19.20;;;4.20;;
61840;SDS011;47773;53.174;6.614;2023-05-18T12:20:08;27.75;;;4.68;;
61840;SDS011;47773;53.174;6.614;2023-05-18T12:22:42;14.70;;;4.50;;
61840;SDS011;47773;53.174;6.614;2023-05-18T12:25:18;21.27;;;4.35;;
61840;SDS011;47773;53.174;6.614;2023-05-18T12:27:45;18.83;;;4.38;;
61840;SDS011;47773;53.174;6.614;2023-05-18T12:32:44;14.23;;;4.03;;
61840;SDS011;47773;53.174;6.614;2023-05-18T12:35:15;17.05;;;4.55;;
61840;SDS011;47773;53.174;6.614;2023-05-18T12:37:45;20.63;;;4.60;;
61840;SDS011;47773;53.174;6.614;2023-05-18T12:40:14;16.92;;;4.35;;
61840;SDS011;47773;53.174;6.614;2023-05-18T12:42:51;14.65;;;3.92;;
61840;SDS011;47773;53.174;6.614;2023-05-18T12:45:22;18.70;;;4.57;;
61840;SDS011;47773;53.174;6.614;2023-05-18T12:47:49;22.98;;;4.53;;
61840;SDS011;47773;53.174;6.614;2023-05-18T12:50:19;18.05;;;4.35;;
61840;SDS011;47773;53.174;6.614;2023-05-18T12:52:48;25.02;;;4.43;;
61840;SDS011;47773;53.174;6.614;2023-05-18T12:55:19;23.75;;;4.63;;
61840;SDS011;47773;53.174;6.614;2023-05-18T12:57:56;22.10;;;5.00;;
61840;SDS011;47773;53.174;6.614;2023-05-18T13:00:26;12.60;;;3.95;;
61840;SDS011;47773;53.174;6.614;2023-05-18T13:03:03;15.63;;;4.53;;
61840;SDS011;47773;53.174;6.614;2023-05-18T13:05:38;24.48;;;5.03;;
61840;SDS011;47773;53.174;6.614;2023-05-18T13:08:05;24.98;;;4.95;;
61840;SDS011;47773;53.174;6.614;2023-05-18T13:10:31;22.35;;;4.63;;
61840;SDS011;47773;53.174;6.614;2023-05-18T13:12:57;21.58;;;5.25;;
61840;SDS011;47773;53.174;6.614;2023-05-18T13:15:25;21.75;;;4.80;;
61840;SDS011;47773;53.174;6.614;2023-05-18T13:20:47;16.40;;;4.90;;
61840;SDS011;47773;53.174;6.614;2023-05-18T13:23:36;27.45;;;5.10;;
61840;SDS011;47773;53.174;6.614;2023-05-18T13:26:01;21.55;;;5.05;;
61840;SDS011;47773;53.174;6.614;2023-05-18T13:28:26;20.30;;;5.10;;
61840;SDS011;47773;53.174;6.614;2023-05-18T13:30:52;20.58;;;4.68;;
61840;SDS011;47773;53.174;6.614;2023-05-18T13:33:18;15.68;;;4.90;;
61840;SDS011;47773;53.174;6.614;2023-05-18T13:35:43;20.65;;;4.82;;
61840;SDS011;47773;53.174;6.614;2023-05-18T13:38:10;17.48;;;4.78;;
61840;SDS011;47773;53.174;6.614;2023-05-18T13:40:37;20.45;;;4.53;;
61840;SDS011;47773;53.174;6.614;2023-05-18T13:43:03;18.02;;;5.18;;
61840;SDS011;47773;53.174;6.614;2023-05-18T13:45:33;24.77;;;5.40;;
61840;SDS011;47773;53.174;6.614;2023-05-18T13:47:59;16.75;;;4.18;;
61840;SDS011;47773;53.174;6.614;2023-05-18T13:50:25;19.30;;;4.70;;
61840;SDS011;47773;53.174;6.614;2023-05-18T13:52:51;24.80;;;5.15;;
61840;SDS011;47773;53.174;6.614;2023-05-18T13:55:18;18.98;;;4.30;;
61840;SDS011;47773;53.174;6.614;2023-05-18T13:57:44;20.23;;;4.25;;
61840;SDS011;47773;53.174;6.614;2023-05-18T14:00:10;22.13;;;3.90;;
61840;SDS011;47773;53.174;6.614;2023-05-18T14:02:40;20.85;;;4.32;;
61840;SDS011;47773;53.174;6.614;2023-05-18T14:05:06;21.60;;;4.88;;
61840;SDS011;47773;53.174;6.614;2023-05-18T14:07:36;17.90;;;4.57;;
61840;SDS011;47773;53.174;6.614;2023-05-18T14:10:02;19.33;;;4.97;;
61840;SDS011;47773;53.174;6.614;2023-05-18T14:12:29;16.88;;;4.90;;
61840;SDS011;47773;53.174;6.614;2023-05-18T14:14:56;18.10;;;5.00;;
61840;SDS011;47773;53.174;6.614;2023-05-18T14:17:21;19.27;;;4.47;;
61840;SDS011;47773;53.174;6.614;2023-05-18T14:19:47;20.30;;;4.93;;
61840;SDS011;47773;53.174;6.614;2023-05-18T14:22:13;16.60;;;4.60;;
61840;SDS011;47773;53.174;6.614;2023-05-18T14:24:40;22.40;;;5.45;;
61840;SDS011;47773;53.174;6.614;2023-05-18T14:27:06;22.55;;;5.32;;
61840;SDS011;47773;53.174;6.614;2023-05-18T14:29:32;26.02;;;5.07;;
61840;SDS011;47773;53.174;6.614;2023-05-18T14:31:58;18.30;;;4.90;;
61840;SDS011;47773;53.174;6.614;2023-05-18T14:34:24;19.10;;;4.70;;
61840;SDS011;47773;53.174;6.614;2023-05-18T14:36:51;20.92;;;4.75;;
61840;SDS011;47773;53.174;6.614;2023-05-18T14:39:17;15.50;;;4.65;;
61840;SDS011;47773;53.174;6.614;2023-05-18T14:41:42;19.58;;;5.00;;
61840;SDS011;47773;53.174;6.614;2023-05-18T14:44:08;16.38;;;3.67;;
61840;SDS011;47773;53.174;6.614;2023-05-18T14:46:37;17.48;;;4.25;;
61840;SDS011;47773;53.174;6.614;2023-05-18T14:49:02;21.15;;;4.03;;
61840;SDS011;47773;53.174;6.614;2023-05-18T14:51:28;23.52;;;4.50;;
61840;SDS011;47773;53.174;6.614;2023-05-18T14:53:54;26.77;;;5.22;;
61840;SDS011;47773;53.174;6.614;2023-05-18T14:56:19;17.45;;;5.00;;
61840;SDS011;47773;53.174;6.614;2023-05-18T14:58:45;22.63;;;4.53;;
61840;SDS011;47773;53.174;6.614;2023-05-18T15:01:12;18.60;;;4.60;;
61840;SDS011;47773;53.174;6.614;2023-05-18T15:03:38;17.05;;;3.35;;
61840;SDS011;47773;53.174;6.614;2023-05-18T15:06:03;18.52;;;3.78;;
61840;SDS011;47773;53.174;6.614;2023-05-18T15:08:29;18.85;;;3.85;;
61840;SDS011;47773;53.174;6.614;2023-05-18T15:10:55;22.88;;;3.80;;
61840;SDS011;47773;53.174;6.614;2023-05-18T15:13:21;16.17;;;4.05;;
61840;SDS011;47773;53.174;6.614;2023-05-18T15:15:47;16.27;;;3.67;;